createdAt,value
2019-02-20T00:03:11.947Z,8.50
2019-02-20T00:07:20.033Z,9.60
2019-02-20T00:11:26.875Z,8.73
2019-02-20T00:15:33.679Z,8.40
2019-02-20T00:19:40.554Z,9.43
2019-02-20T00:23:47.419Z,9.30
2019-02-20T00:27:54.264Z,8.73
2019-02-20T00:32:01.220Z,10.50
2019-02-20T00:36:08.127Z,9.60
2019-02-20T00:40:14.958Z,8.93
2019-02-20T00:44:28.537Z,9.60
2019-02-20T00:48:58.261Z,9.60
2019-02-20T00:53:24.072Z,10.00
2019-02-20T00:57:30.918Z,8.97
2019-02-20T01:01:37.696Z,9.73
2019-02-20T01:05:44.600Z,10.73
2019-02-20T01:09:51.612Z,10.33
2019-02-20T01:13:58.424Z,10.73
2019-02-20T01:18:05.284Z,9.97
2019-02-20T01:22:12.080Z,10.73
2019-02-20T01:26:19.987Z,12.23
2019-02-20T01:30:26.827Z,11.40
2019-02-20T01:34:33.712Z,11.67
2019-02-20T01:38:40.540Z,11.57
2019-02-20T01:42:47.407Z,11.00
2019-02-20T01:46:54.224Z,11.57
2019-02-20T01:51:01.169Z,11.63
2019-02-20T01:55:08.689Z,12.17
2019-02-20T01:59:15.556Z,12.00
2019-02-20T02:03:22.393Z,12.37
2019-02-20T02:07:29.251Z,11.80
2019-02-20T02:11:36.245Z,12.70
2019-02-20T02:15:43.291Z,12.77
2019-02-20T02:19:50.200Z,12.60
2019-02-20T02:23:57.056Z,13.13
2019-02-20T02:28:04.005Z,12.77
2019-02-20T02:32:10.957Z,11.50
2019-02-20T02:36:17.886Z,12.87
2019-02-20T02:40:24.747Z,11.43
2019-02-20T02:44:31.620Z,11.63
2019-02-20T02:48:38.574Z,11.27
2019-02-20T02:52:45.454Z,12.13
2019-02-20T02:56:54.586Z,11.73
2019-02-20T03:01:01.471Z,12.03
2019-02-20T03:05:08.699Z,13.57
2019-02-20T03:09:15.642Z,11.77
2019-02-20T03:13:22.479Z,11.40
2019-02-20T03:17:40.112Z,14.33
2019-02-20T03:21:47.042Z,12.53
2019-02-20T03:25:54.151Z,12.97
2019-02-20T03:30:01.097Z,12.63
2019-02-20T03:34:10.057Z,12.27
2019-02-20T03:38:16.934Z,13.17
2019-02-20T03:42:23.733Z,12.80
2019-02-20T03:46:31.820Z,15.73
2019-02-20T03:50:38.660Z,15.33
2019-02-20T03:54:47.151Z,15.93
2019-02-20T03:58:54.027Z,13.27
2019-02-20T04:03:00.897Z,13.50
2019-02-20T04:07:07.759Z,13.47
2019-02-20T04:11:14.700Z,14.23
2019-02-20T04:15:21.613Z,13.63
2019-02-20T04:19:28.454Z,13.33
2019-02-20T04:23:35.284Z,13.30
2019-02-20T04:27:42.159Z,13.47
2019-02-20T04:31:49.505Z,15.57
2019-02-20T04:35:56.761Z,14.80
2019-02-20T04:40:03.886Z,14.80
2019-02-20T04:44:11.131Z,15.67
2019-02-20T04:48:18.261Z,14.80
2019-02-20T04:52:25.328Z,17.37
2019-02-20T04:56:32.505Z,19.73
2019-02-20T05:00:39.629Z,17.37
2019-02-20T05:04:46.855Z,21.13
2019-02-20T05:08:53.982Z,20.60
2019-02-20T05:13:00.890Z,21.43
2019-02-20T05:17:07.872Z,22.07
2019-02-20T05:21:14.740Z,20.43
2019-02-20T05:25:25.301Z,19.17
2019-02-20T05:29:32.145Z,21.53
2019-02-20T05:33:39.070Z,20.47
2019-02-20T05:37:45.988Z,19.80
2019-02-20T05:41:52.952Z,20.47
2019-02-20T05:45:59.869Z,20.33
2019-02-20T05:50:07.023Z,20.60
2019-02-20T05:54:13.912Z,20.27
2019-02-20T05:58:20.809Z,20.83
2019-02-20T06:02:31.204Z,20.23
2019-02-20T06:06:38.318Z,20.73
2019-02-20T06:10:45.380Z,21.97
2019-02-20T06:14:52.233Z,21.20
2019-02-20T06:18:59.101Z,22.43
2019-02-20T06:23:05.971Z,22.80
2019-02-20T06:27:12.891Z,22.97
2019-02-20T06:31:19.718Z,25.40
2019-02-20T06:35:26.598Z,24.67
2019-02-20T06:39:33.459Z,23.17
2019-02-20T06:43:40.308Z,23.23
2019-02-20T06:47:47.202Z,23.27
2019-02-20T06:51:54.041Z,24.13
2019-02-20T06:56:01.027Z,24.70
2019-02-20T07:00:10.652Z,22.80
2019-02-20T07:04:17.483Z,24.77
2019-02-20T07:09:30.955Z,22.43
2019-02-20T07:14:38.387Z,20.30
2019-02-20T07:19:32.800Z,20.77
2019-02-20T07:24:36.427Z,21.77
2019-02-20T07:29:48.455Z,22.13
2019-02-20T07:33:55.360Z,22.07
2019-02-20T07:38:02.320Z,22.20
2019-02-20T07:42:09.309Z,24.40
2019-02-20T07:46:16.303Z,24.77
2019-02-20T07:50:23.253Z,23.13
2019-02-20T07:54:30.141Z,23.67
2019-02-20T07:58:37.100Z,22.87
2019-02-20T08:02:44.019Z,22.03
2019-02-20T08:06:50.980Z,22.50
2019-02-20T08:11:00.452Z,22.97
2019-02-20T08:15:08.799Z,21.77
2019-02-20T08:19:15.875Z,23.23
2019-02-20T08:23:22.906Z,23.67
2019-02-20T08:27:29.912Z,24.70
2019-02-20T08:31:37.040Z,25.10
2019-02-20T08:35:43.934Z,25.33
2019-02-20T08:39:51.048Z,24.23
2019-02-20T08:43:58.076Z,23.87
2019-02-20T08:48:05.004Z,22.03
2019-02-20T08:52:11.966Z,23.00
2019-02-20T08:56:19.080Z,22.60
2019-02-20T09:00:26.146Z,21.80
2019-02-20T09:04:33.053Z,20.90
2019-02-20T09:08:39.934Z,20.40
2019-02-20T09:12:46.891Z,19.67
2019-02-20T09:16:53.794Z,19.50
2019-02-20T09:21:01.005Z,18.93
2019-02-20T09:25:19.242Z,25.03
2019-02-20T09:29:19.326Z,19.23
2019-02-20T09:33:26.178Z,21.17
2019-02-20T09:37:33.148Z,20.40
2019-02-20T09:41:40.048Z,18.53
2019-02-20T09:45:46.974Z,19.37
2019-02-20T09:49:53.855Z,19.27
2019-02-20T09:54:00.769Z,19.33
2019-02-20T09:58:07.697Z,18.50
2019-02-20T10:02:15.525Z,17.57
2019-02-20T10:06:23.491Z,18.73
2019-02-20T10:10:30.582Z,18.07
2019-02-20T10:14:37.548Z,17.57
2019-02-20T10:18:44.449Z,18.00
2019-02-20T10:22:51.365Z,17.70
2019-02-20T10:27:00.641Z,18.17
2019-02-20T10:31:06.903Z,18.27
2019-02-20T10:35:16.071Z,16.67
2019-02-20T10:39:22.983Z,19.27
2019-02-20T10:43:30.048Z,17.93
2019-02-20T10:47:36.896Z,17.37
2019-02-20T10:51:44.587Z,20.47
2019-02-20T10:55:51.505Z,18.10
2019-02-20T10:59:58.487Z,17.57
2019-02-20T11:04:05.412Z,17.07
2019-02-20T11:08:12.470Z,17.63
2019-02-20T11:12:19.442Z,16.73
2019-02-20T11:16:26.480Z,17.03
2019-02-20T11:20:33.623Z,17.70
2019-02-20T11:24:40.674Z,17.67
2019-02-20T11:28:47.540Z,16.10
2019-02-20T11:32:54.393Z,16.70
2019-02-20T11:37:01.315Z,17.40
2019-02-20T11:41:09.662Z,16.47
2019-02-20T11:45:17.128Z,15.10
2019-02-20T11:49:23.998Z,14.07
2019-02-20T11:53:37.004Z,14.67
2019-02-20T11:57:40.475Z,13.73
2019-02-20T12:01:47.517Z,13.00
2019-02-20T12:05:54.350Z,12.77
2019-02-20T12:10:01.207Z,13.20
2019-02-20T12:14:08.576Z,12.10
2019-02-20T12:18:19.185Z,10.47
2019-02-20T12:22:29.221Z,10.13
2019-02-20T12:26:37.561Z,10.93
2019-02-20T12:30:44.592Z,11.60
2019-02-20T12:34:51.854Z,11.97
2019-02-20T12:38:58.711Z,13.17
2019-02-20T12:43:06.629Z,12.30
2019-02-20T12:47:13.475Z,11.80
2019-02-20T12:51:20.363Z,11.90
2019-02-20T12:55:27.332Z,11.93
2019-02-20T12:59:34.368Z,12.83
2019-02-20T13:03:41.236Z,11.80
2019-02-20T13:07:48.610Z,13.83
2019-02-20T13:11:55.416Z,13.57
2019-02-20T13:16:09.405Z,13.80
2019-02-20T13:20:10.901Z,14.20
2019-02-20T13:24:17.825Z,13.73
2019-02-20T13:28:24.728Z,12.77
2019-02-20T13:32:31.554Z,11.77
2019-02-20T13:36:38.407Z,13.33
2019-02-20T13:40:45.389Z,12.03
2019-02-20T13:44:53.797Z,11.03
2019-02-20T13:49:00.995Z,9.63
2019-02-20T13:53:08.377Z,12.20
2019-02-20T13:57:15.631Z,11.27
2019-02-20T14:01:22.504Z,10.17
2019-02-20T14:05:29.642Z,8.97
2019-02-20T14:09:37.511Z,10.07
2019-02-20T14:13:44.436Z,9.17
2019-02-20T14:17:51.254Z,10.07
2019-02-20T14:21:58.553Z,9.60
2019-02-20T14:26:05.378Z,11.17
2019-02-20T14:30:12.833Z,9.33
2019-02-20T14:34:19.747Z,9.97
2019-02-20T14:38:26.674Z,11.03
2019-02-20T14:42:36.279Z,10.03
2019-02-20T14:46:43.314Z,10.63
2019-02-20T14:50:50.519Z,10.47
2019-02-20T14:54:57.373Z,10.40
2019-02-20T14:59:04.383Z,10.07
2019-02-20T15:03:11.427Z,10.23
2019-02-20T15:07:18.294Z,11.03
2019-02-20T15:11:25.218Z,10.20
2019-02-20T15:15:32.143Z,10.03
2019-02-20T15:19:39.520Z,9.50
2019-02-20T15:23:46.631Z,10.13
2019-02-20T15:27:53.615Z,9.07
2019-02-20T15:32:00.609Z,9.50
2019-02-20T15:36:07.566Z,9.10
2019-02-20T15:40:14.418Z,9.00
2019-02-20T15:44:21.965Z,8.27
2019-02-20T15:48:28.914Z,8.40
2019-02-20T15:52:35.867Z,9.43
2019-02-20T15:56:42.785Z,9.27
2019-02-20T16:00:49.638Z,8.83
2019-02-20T16:04:56.525Z,8.57
2019-02-20T16:09:05.511Z,9.30
2019-02-20T16:13:13.999Z,10.20
2019-02-20T16:17:22.122Z,18.13
2019-02-20T16:21:29.708Z,16.20
2019-02-20T16:25:36.674Z,20.07
2019-02-20T16:29:43.639Z,11.10
2019-02-20T16:33:50.540Z,10.40
2019-02-20T16:37:57.726Z,12.13
2019-02-20T16:42:04.776Z,11.10
2019-02-20T16:46:11.781Z,11.83
2019-02-20T16:50:19.137Z,12.03
2019-02-20T16:54:25.925Z,12.70
2019-02-20T16:58:33.963Z,13.17
2019-02-20T17:02:40.851Z,14.57
2019-02-20T17:06:48.151Z,13.97
2019-02-20T17:10:55.339Z,15.07
2019-02-20T17:15:02.141Z,15.10
2019-02-20T17:19:09.566Z,15.10
2019-02-20T17:23:18.592Z,16.07
2019-02-20T17:27:26.845Z,16.47
2019-02-20T17:31:37.330Z,15.60
2019-02-20T17:35:44.633Z,15.57
2019-02-20T17:39:51.863Z,18.20
2019-02-20T17:43:58.981Z,18.10
2019-02-20T17:48:06.162Z,20.20
2019-02-20T17:52:13.154Z,19.00
2019-02-20T17:56:20.485Z,18.53
2019-02-20T18:00:29.242Z,18.70
2019-02-20T18:04:38.379Z,26.63
2019-02-20T18:08:51.059Z,22.23
2019-02-20T18:12:59.128Z,20.53
2019-02-20T18:17:06.133Z,21.03
2019-02-20T18:21:15.127Z,20.20
2019-02-20T18:25:25.106Z,19.77
2019-02-20T18:29:32.029Z,51.37
2019-02-20T18:33:39.133Z,28.27
2019-02-20T18:37:46.085Z,20.53
2019-02-20T18:41:53.092Z,20.70
2019-02-20T18:46:00.049Z,21.57
2019-02-20T18:50:12.019Z,22.83
2019-02-20T18:54:21.286Z,20.93
2019-02-20T18:58:33.929Z,20.23
2019-02-20T19:02:37.089Z,20.27
2019-02-20T19:06:44.022Z,24.93
2019-02-20T19:11:00.019Z,18.90
2019-02-20T19:16:04.651Z,17.77
2019-02-20T19:20:20.993Z,17.27
2019-02-20T19:25:32.930Z,16.10
2019-02-20T19:30:30.061Z,17.40
2019-02-20T19:35:33.885Z,16.87
2019-02-20T19:40:52.954Z,15.80
2019-02-20T19:46:29.915Z,15.67
2019-02-20T19:51:12.779Z,16.70
2019-02-20T19:56:22.995Z,16.50
2019-02-20T20:01:08.208Z,16.27
2019-02-20T20:06:18.203Z,16.20
2019-02-20T20:11:44.744Z,18.40
2019-02-20T20:16:31.689Z,17.73
2019-02-20T20:21:32.233Z,18.03
2019-02-20T20:26:47.225Z,19.33
2019-02-20T20:31:42.005Z,19.33
2019-02-20T20:36:16.878Z,18.50
2019-02-20T20:41:13.983Z,21.23
2019-02-20T20:46:01.999Z,20.17
2019-02-20T20:51:04.170Z,21.33
2019-02-20T20:56:03.894Z,18.63
2019-02-20T21:01:12.428Z,16.03
2019-02-20T21:05:56.894Z,25.27
2019-02-20T21:11:01.055Z,22.07
2019-02-20T21:16:00.881Z,22.20
2019-02-20T21:20:57.346Z,20.37
2019-02-20T21:26:11.635Z,25.83
2019-02-20T21:31:05.384Z,20.93
2019-02-20T21:36:17.103Z,19.93
2019-02-20T21:41:22.930Z,19.80
2019-02-20T21:46:36.469Z,23.90
2019-02-20T21:51:13.743Z,30.23
2019-02-20T21:56:16.021Z,21.70
2019-02-20T22:01:21.682Z,21.33
2019-02-20T22:06:21.803Z,22.03
2019-02-20T22:12:08.109Z,22.80
2019-02-20T22:17:14.436Z,21.47
2019-02-20T22:22:15.209Z,21.37
2019-02-20T22:27:21.705Z,19.93
2019-02-20T22:32:39.074Z,21.00
2019-02-20T22:37:34.821Z,23.27
2019-02-20T22:42:39.117Z,20.27
2019-02-20T22:47:49.216Z,20.23
2019-02-20T22:52:40.841Z,20.27
2019-02-20T22:57:43.373Z,20.27
2019-02-20T23:02:14.572Z,20.43
2019-02-20T23:07:13.380Z,22.17
2019-02-20T23:12:20.785Z,20.07
2019-02-20T23:16:27.615Z,20.67
2019-02-20T23:20:34.423Z,20.00
2019-02-20T23:24:42.177Z,19.57
2019-02-20T23:28:49.121Z,18.47
2019-02-20T23:32:56.073Z,19.40
2019-02-20T23:37:03.215Z,20.07
2019-02-20T23:41:10.059Z,19.97
2019-02-20T23:45:17.034Z,20.00
2019-02-20T23:49:23.969Z,21.03
2019-02-20T23:53:30.910Z,19.87
2019-02-20T23:57:37.866Z,18.80
